sensor_id;sensor_type;location;lat;lon;timestamp;pressure;altitude;pressure_sealevel;temperature;humidity
66547;BME280;53400;50.364;14.874;2023-02-21T00:01:06;98503.22;;;7.89;83.30
66547;BME280;53400;50.364;14.874;2023-02-21T00:03:51;98497.09;;;7.88;83.87
66547;BME280;53400;50.364;14.874;2023-02-21T00:06:35;98491.47;;;7.78;84.17
66547;BME280;53400;50.364;14.874;2023-02-21T00:09:20;98499.75;;;7.88;84.08
66547;BME280;53400;50.364;14.874;2023-02-21T00:12:04;98505.88;;;7.89;84.23
66547;BME280;53400;50.364;14.874;2023-02-21T00:14:49;98499.38;;;7.85;84.19
66547;BME280;53400;50.364;14.874;2023-02-21T00:17:35;98499.97;;;7.87;83.62
66547;BME280;53400;50.364;14.874;2023-02-21T00:20:19;98504.16;;;7.82;83.59
66547;BME280;53400;50.364;14.874;2023-02-21T00:23:03;98497.28;;;7.87;83.53
66547;BME280;53400;50.364;14.874;2023-02-21T00:25:48;98494.50;;;7.81;83.81
66547;BME280;53400;50.364;14.874;2023-02-21T00:28:32;98498.22;;;7.92;83.92
66547;BME280;53400;50.364;14.874;2023-02-21T00:31:18;98493.00;;;7.86;83.25
66547;BME280;53400;50.364;14.874;2023-02-21T00:34:03;98496.16;;;7.82;83.65
66547;BME280;53400;50.364;14.874;2023-02-21T00:36:48;98492.06;;;7.80;84.52
66547;BME280;53400;50.364;14.874;2023-02-21T00:39:32;98497.28;;;7.87;84.11
66547;BME280;53400;50.364;14.874;2023-02-21T00:42:16;98507.03;;;7.93;83.51
66547;BME280;53400;50.364;14.874;2023-02-21T00:45:01;98499.50;;;7.90;83.87
66547;BME280;53400;50.364;14.874;2023-02-21T00:47:46;98500.66;;;7.94;83.41
66547;BME280;53400;50.364;14.874;2023-02-21T00:50:31;98489.97;;;7.82;84.54
66547;BME280;53400;50.364;14.874;2023-02-21T00:53:16;98491.97;;;7.87;84.69
66547;BME280;53400;50.364;14.874;2023-02-21T00:56:00;98491.28;;;7.79;85.29
66547;BME280;53400;50.364;14.874;2023-02-21T00:58:45;98490.09;;;7.75;84.79
66547;BME280;53400;50.364;14.874;2023-02-21T01:01:30;98494.25;;;7.71;85.35
66547;BME280;53400;50.364;14.874;2023-02-21T01:04:14;98497.59;;;7.67;86.25
66547;BME280;53400;50.364;14.874;2023-02-21T01:07:00;98493.09;;;7.79;85.64
66547;BME280;53400;50.364;14.874;2023-02-21T01:09:44;98491.00;;;7.69;86.15
66547;BME280;53400;50.364;14.874;2023-02-21T01:12:29;98502.72;;;7.68;86.93
66547;BME280;53400;50.364;14.874;2023-02-21T01:15:14;98497.25;;;7.63;86.27
66547;BME280;53400;50.364;14.874;2023-02-21T01:17:58;98491.25;;;7.68;87.25
66547;BME280;53400;50.364;14.874;2023-02-21T01:20:42;98488.94;;;7.71;85.86
66547;BME280;53400;50.364;14.874;2023-02-21T01:23:28;98480.81;;;7.66;86.24
66547;BME280;53400;50.364;14.874;2023-02-21T01:26:13;98476.28;;;7.67;86.00
66547;BME280;53400;50.364;14.874;2023-02-21T01:28:57;98487.50;;;7.57;86.28
66547;BME280;53400;50.364;14.874;2023-02-21T01:31:42;98486.56;;;7.51;87.72
66547;BME280;53400;50.364;14.874;2023-02-21T01:34:27;98473.34;;;7.45;87.25
66547;BME280;53400;50.364;14.874;2023-02-21T01:37:11;98478.56;;;7.40;88.37
66547;BME280;53400;50.364;14.874;2023-02-21T01:39:57;98483.69;;;7.53;87.80
66547;BME280;53400;50.364;14.874;2023-02-21T01:42:41;98489.00;;;7.53;87.56
66547;BME280;53400;50.364;14.874;2023-02-21T01:45:40;98498.72;;;7.47;88.21
66547;BME280;53400;50.364;14.874;2023-02-21T01:48:26;98492.59;;;7.47;88.08
66547;BME280;53400;50.364;14.874;2023-02-21T01:51:13;98491.88;;;7.40;88.90
66547;BME280;53400;50.364;14.874;2023-02-21T01:54:00;98487.00;;;7.48;88.84
66547;BME280;53400;50.364;14.874;2023-02-21T01:56:47;98481.69;;;7.48;88.64
66547;BME280;53400;50.364;14.874;2023-02-21T01:59:32;98481.44;;;7.38;89.53
66547;BME280;53400;50.364;14.874;2023-02-21T02:02:21;98478.88;;;7.31;89.99
66547;BME280;53400;50.364;14.874;2023-02-21T02:05:09;98490.13;;;7.33;90.43
66547;BME280;53400;50.364;14.874;2023-02-21T02:07:54;98484.41;;;7.30;90.74
66547;BME280;53400;50.364;14.874;2023-02-21T02:10:40;98480.72;;;7.31;90.75
66547;BME280;53400;50.364;14.874;2023-02-21T02:13:51;98485.72;;;7.27;90.81
66547;BME280;53400;50.364;14.874;2023-02-21T02:16:26;98480.84;;;7.24;91.42
66547;BME280;53400;50.364;14.874;2023-02-21T02:19:09;98465.16;;;7.16;92.19
66547;BME280;53400;50.364;14.874;2023-02-21T02:22:12;98467.13;;;7.21;91.62
66547;BME280;53400;50.364;14.874;2023-02-21T02:24:53;98467.13;;;7.21;92.42
66547;BME280;53400;50.364;14.874;2023-02-21T02:27:43;98455.06;;;7.18;92.77
66547;BME280;53400;50.364;14.874;2023-02-21T02:33:58;98442.47;;;7.13;92.33
66547;BME280;53400;50.364;14.874;2023-02-21T02:36:36;98443.53;;;7.24;91.81
66547;BME280;53400;50.364;14.874;2023-02-21T02:39:14;98448.94;;;7.18;93.01
66547;BME280;53400;50.364;14.874;2023-02-21T02:41:48;98448.63;;;7.26;92.56
66547;BME280;53400;50.364;14.874;2023-02-21T02:44:20;98451.75;;;7.23;92.87
66547;BME280;53400;50.364;14.874;2023-02-21T02:46:49;98458.16;;;7.33;92.04
66547;BME280;53400;50.364;14.874;2023-02-21T02:49:18;98448.78;;;7.43;92.17
66547;BME280;53400;50.364;14.874;2023-02-21T02:51:46;98429.56;;;7.41;92.47
66547;BME280;53400;50.364;14.874;2023-02-21T02:54:12;98438.59;;;7.51;91.92
66547;BME280;53400;50.364;14.874;2023-02-21T02:56:38;98438.41;;;7.65;91.43
66547;BME280;53400;50.364;14.874;2023-02-21T02:59:06;98432.34;;;7.57;91.54
66547;BME280;53400;50.364;14.874;2023-02-21T03:01:58;98430.06;;;7.61;90.76
66547;BME280;53400;50.364;14.874;2023-02-21T03:04:52;98440.13;;;7.59;91.26
66547;BME280;53400;50.364;14.874;2023-02-21T03:07:31;98443.72;;;7.65;90.98
66547;BME280;53400;50.364;14.874;2023-02-21T03:10:11;98434.91;;;7.52;92.34
66547;BME280;53400;50.364;14.874;2023-02-21T03:12:44;98440.59;;;7.56;91.82
66547;BME280;53400;50.364;14.874;2023-02-21T03:15:16;98440.44;;;7.51;92.44
66547;BME280;53400;50.364;14.874;2023-02-21T03:17:49;98438.50;;;7.58;92.09
66547;BME280;53400;50.364;14.874;2023-02-21T03:20:19;98441.28;;;7.63;91.33
66547;BME280;53400;50.364;14.874;2023-02-21T03:22:48;98436.66;;;7.70;91.75
66547;BME280;53400;50.364;14.874;2023-02-21T03:25:17;98434.34;;;7.74;91.63
66547;BME280;53400;50.364;14.874;2023-02-21T03:27:43;98440.13;;;7.59;92.15
66547;BME280;53400;50.364;14.874;2023-02-21T03:30:11;98449.28;;;7.63;91.66
66547;BME280;53400;50.364;14.874;2023-02-21T03:32:39;98440.34;;;7.69;92.35
66547;BME280;53400;50.364;14.874;2023-02-21T03:35:08;98433.75;;;7.72;91.15
66547;BME280;53400;50.364;14.874;2023-02-21T03:37:36;98427.94;;;7.63;92.13
66547;BME280;53400;50.364;14.874;2023-02-21T03:40:05;98424.34;;;7.57;92.70
66547;BME280;53400;50.364;14.874;2023-02-21T03:42:31;98426.09;;;7.64;92.14
66547;BME280;53400;50.364;14.874;2023-02-21T03:44:57;98426.34;;;7.62;92.13
66547;BME280;53400;50.364;14.874;2023-02-21T03:47:24;98412.56;;;7.65;92.34
66547;BME280;53400;50.364;14.874;2023-02-21T03:49:50;98409.19;;;7.70;92.45
66547;BME280;53400;50.364;14.874;2023-02-21T03:52:16;98403.63;;;7.71;92.09
66547;BME280;53400;50.364;14.874;2023-02-21T03:54:42;98409.19;;;7.58;92.04
66547;BME280;53400;50.364;14.874;2023-02-21T03:57:09;98411.41;;;7.61;92.33
66547;BME280;53400;50.364;14.874;2023-02-21T03:59:35;98403.63;;;7.59;92.58
66547;BME280;53400;50.364;14.874;2023-02-21T04:02:01;98402.13;;;7.52;93.67
66547;BME280;53400;50.364;14.874;2023-02-21T04:04:27;98402.94;;;7.52;93.28
66547;BME280;53400;50.364;14.874;2023-02-21T04:06:53;98397.34;;;7.42;94.47
66547;BME280;53400;50.364;14.874;2023-02-21T04:09:19;98395.06;;;7.46;93.88
66547;BME280;53400;50.364;14.874;2023-02-21T04:11:45;98396.34;;;7.55;93.06
66547;BME280;53400;50.364;14.874;2023-02-21T04:14:13;98402.22;;;7.57;93.81
66547;BME280;53400;50.364;14.874;2023-02-21T04:16:40;98394.69;;;7.54;94.04
66547;BME280;53400;50.364;14.874;2023-02-21T04:19:07;98399.53;;;7.45;94.05
66547;BME280;53400;50.364;14.874;2023-02-21T04:21:32;98392.03;;;7.54;93.27
66547;BME280;53400;50.364;14.874;2023-02-21T04:23:58;98384.13;;;7.35;94.47
66547;BME280;53400;50.364;14.874;2023-02-21T04:26:24;98389.00;;;7.39;94.42
66547;BME280;53400;50.364;14.874;2023-02-21T04:28:51;98381.13;;;7.44;94.42
66547;BME280;53400;50.364;14.874;2023-02-21T04:31:18;98398.84;;;7.38;94.19
66547;BME280;53400;50.364;14.874;2023-02-21T04:33:44;98391.78;;;7.32;94.73
66547;BME280;53400;50.364;14.874;2023-02-21T04:36:10;98395.97;;;7.40;94.07
66547;BME280;53400;50.364;14.874;2023-02-21T04:38:36;98407.53;;;7.33;93.74
66547;BME280;53400;50.364;14.874;2023-02-21T04:41:02;98413.56;;;7.41;93.80
66547;BME280;53400;50.364;14.874;2023-02-21T04:43:28;98413.88;;;7.32;93.80
66547;BME280;53400;50.364;14.874;2023-02-21T04:45:54;98416.34;;;7.34;94.68
66547;BME280;53400;50.364;14.874;2023-02-21T04:48:21;98419.13;;;7.39;93.85
66547;BME280;53400;50.364;14.874;2023-02-21T04:50:47;98417.16;;;7.34;94.48
66547;BME280;53400;50.364;14.874;2023-02-21T04:53:13;98412.97;;;7.39;94.27
66547;BME280;53400;50.364;14.874;2023-02-21T04:55:39;98424.13;;;7.47;93.68
66547;BME280;53400;50.364;14.874;2023-02-21T04:58:05;98420.53;;;7.53;93.63
66547;BME280;53400;50.364;14.874;2023-02-21T05:00:31;98415.44;;;7.52;93.98
66547;BME280;53400;50.364;14.874;2023-02-21T05:02:57;98414.53;;;7.58;94.00
66547;BME280;53400;50.364;14.874;2023-02-21T05:05:24;98424.47;;;7.63;92.84
66547;BME280;53400;50.364;14.874;2023-02-21T05:07:51;98420.28;;;7.43;94.29
66547;BME280;53400;50.364;14.874;2023-02-21T05:10:17;98417.88;;;7.53;93.77
66547;BME280;53400;50.364;14.874;2023-02-21T05:12:43;98417.28;;;7.63;93.24
66547;BME280;53400;50.364;14.874;2023-02-21T05:15:11;98413.47;;;7.59;93.20
66547;BME280;53400;50.364;14.874;2023-02-21T05:17:37;98415.69;;;7.62;93.45
66547;BME280;53400;50.364;14.874;2023-02-21T05:20:03;98414.88;;;7.73;93.52
66547;BME280;53400;50.364;14.874;2023-02-21T05:22:32;98414.50;;;7.70;93.06
66547;BME280;53400;50.364;14.874;2023-02-21T05:24:58;98403.38;;;7.73;93.11
66547;BME280;53400;50.364;14.874;2023-02-21T05:27:24;98415.44;;;7.75;92.58
66547;BME280;53400;50.364;14.874;2023-02-21T05:29:52;98416.03;;;7.77;93.20
66547;BME280;53400;50.364;14.874;2023-02-21T05:32:20;98410.91;;;7.76;93.08
66547;BME280;53400;50.364;14.874;2023-02-21T05:34:46;98412.31;;;7.78;92.73
66547;BME280;53400;50.364;14.874;2023-02-21T05:37:13;98414.88;;;7.73;93.09
66547;BME280;53400;50.364;14.874;2023-02-21T05:39:40;98414.63;;;7.75;93.77
66547;BME280;53400;50.364;14.874;2023-02-21T05:42:06;98413.25;;;7.72;93.60
66547;BME280;53400;50.364;14.874;2023-02-21T05:44:32;98419.28;;;7.79;92.85
66547;BME280;53400;50.364;14.874;2023-02-21T05:46:58;98423.09;;;7.72;93.34
66547;BME280;53400;50.364;14.874;2023-02-21T05:49:23;98426.00;;;7.70;93.82
66547;BME280;53400;50.364;14.874;2023-02-21T05:51:50;98421.81;;;7.74;93.45
66547;BME280;53400;50.364;14.874;2023-02-21T05:54:18;98431.69;;;7.74;94.06
66547;BME280;53400;50.364;14.874;2023-02-21T05:56:49;98428.53;;;7.65;94.60
66547;BME280;53400;50.364;14.874;2023-02-21T05:59:16;98436.31;;;7.78;93.12
66547;BME280;53400;50.364;14.874;2023-02-21T06:01:44;98431.09;;;7.84;92.78
66547;BME280;53400;50.364;14.874;2023-02-21T06:04:10;98441.28;;;7.75;94.11
66547;BME280;53400;50.364;14.874;2023-02-21T06:06:36;98447.44;;;7.75;93.76
66547;BME280;53400;50.364;14.874;2023-02-21T06:09:03;98456.69;;;7.73;94.07
66547;BME280;53400;50.364;14.874;2023-02-21T06:11:31;98454.88;;;7.85;93.23
66547;BME280;53400;50.364;14.874;2023-02-21T06:14:05;98457.75;;;7.72;93.47
66547;BME280;53400;50.364;14.874;2023-02-21T06:16:31;98457.06;;;7.76;93.90
66547;BME280;53400;50.364;14.874;2023-02-21T06:18:58;98456.97;;;7.83;93.51
66547;BME280;53400;50.364;14.874;2023-02-21T06:21:24;98447.69;;;7.86;93.28
66547;BME280;53400;50.364;14.874;2023-02-21T06:23:49;98457.31;;;7.87;92.87
66547;BME280;53400;50.364;14.874;2023-02-21T06:26:16;98462.88;;;7.85;93.29
66547;BME280;53400;50.364;14.874;2023-02-21T06:28:42;98460.78;;;7.87;93.12
66547;BME280;53400;50.364;14.874;2023-02-21T06:31:09;98468.31;;;7.90;93.45
66547;BME280;53400;50.364;14.874;2023-02-21T06:33:35;98467.50;;;7.90;93.36
66547;BME280;53400;50.364;14.874;2023-02-21T06:36:05;98474.00;;;7.94;94.34
66547;BME280;53400;50.364;14.874;2023-02-21T06:38:31;98477.47;;;7.82;94.51
66547;BME280;53400;50.364;14.874;2023-02-21T06:40:57;98473.09;;;7.88;93.63
66547;BME280;53400;50.364;14.874;2023-02-21T06:43:22;98468.56;;;7.89;94.78
66547;BME280;53400;50.364;14.874;2023-02-21T06:45:49;98481.88;;;7.89;94.92
66547;BME280;53400;50.364;14.874;2023-02-21T06:48:16;98481.78;;;7.95;93.84
66547;BME280;53400;50.364;14.874;2023-02-21T06:50:42;98485.69;;;7.81;95.40
66547;BME280;53400;50.364;14.874;2023-02-21T06:53:08;98477.34;;;7.77;96.29
66547;BME280;53400;50.364;14.874;2023-02-21T06:55:35;98484.53;;;7.77;95.86
66547;BME280;53400;50.364;14.874;2023-02-21T06:58:00;98486.84;;;7.73;95.48
66547;BME280;53400;50.364;14.874;2023-02-21T07:00:26;98483.13;;;7.74;95.37
66547;BME280;53400;50.364;14.874;2023-02-21T07:02:52;98492.88;;;7.69;95.95
66547;BME280;53400;50.364;14.874;2023-02-21T07:05:20;98494.41;;;7.76;95.19
66547;BME280;53400;50.364;14.874;2023-02-21T07:07:46;98494.97;;;7.78;94.80
66547;BME280;53400;50.364;14.874;2023-02-21T07:10:12;98500.19;;;7.97;94.07
66547;BME280;53400;50.364;14.874;2023-02-21T07:12:38;98504.38;;;8.04;93.50
66547;BME280;53400;50.364;14.874;2023-02-21T07:15:04;98505.66;;;8.14;92.99
66547;BME280;53400;50.364;14.874;2023-02-21T07:17:30;98496.94;;;8.18;92.78
66547;BME280;53400;50.364;14.874;2023-02-21T07:19:56;98505.41;;;8.27;92.60
66547;BME280;53400;50.364;14.874;2023-02-21T07:22:23;98502.63;;;8.34;92.82
66547;BME280;53400;50.364;14.874;2023-02-21T07:24:51;98497.88;;;8.36;92.05
66547;BME280;53400;50.364;14.874;2023-02-21T07:27:17;98499.66;;;8.42;92.27
66547;BME280;53400;50.364;14.874;2023-02-21T07:29:45;98494.44;;;8.47;92.06
66547;BME280;53400;50.364;14.874;2023-02-21T07:32:11;98486.63;;;8.57;91.16
66547;BME280;53400;50.364;14.874;2023-02-21T07:34:37;98483.75;;;8.59;91.13
66547;BME280;53400;50.364;14.874;2023-02-21T07:37:03;98478.84;;;8.67;90.57
66547;BME280;53400;50.364;14.874;2023-02-21T07:39:31;98481.59;;;8.72;90.12
66547;BME280;53400;50.364;14.874;2023-02-21T07:41:57;98488.34;;;8.63;91.67
66547;BME280;53400;50.364;14.874;2023-02-21T07:44:23;98490.19;;;8.75;90.21
66547;BME280;53400;50.364;14.874;2023-02-21T07:46:49;98491.66;;;8.82;90.05
66547;BME280;53400;50.364;14.874;2023-02-21T07:49:15;98501.00;;;8.80;90.02
66547;BME280;53400;50.364;14.874;2023-02-21T07:51:41;98499.13;;;8.80;89.47
66547;BME280;53400;50.364;14.874;2023-02-21T07:54:07;98503.19;;;8.83;90.22
66547;BME280;53400;50.364;14.874;2023-02-21T07:56:34;98501.41;;;8.88;89.41
66547;BME280;53400;50.364;14.874;2023-02-21T07:59:03;98504.03;;;9.00;89.33
66547;BME280;53400;50.364;14.874;2023-02-21T08:01:29;98508.09;;;9.03;88.59
66547;BME280;53400;50.364;14.874;2023-02-21T08:03:55;98499.88;;;9.04;89.63
66547;BME280;53400;50.364;14.874;2023-02-21T08:06:21;98503.81;;;9.02;89.77
66547;BME280;53400;50.364;14.874;2023-02-21T08:08:47;98502.19;;;9.01;89.45
66547;BME280;53400;50.364;14.874;2023-02-21T08:11:13;98504.34;;;9.15;89.54
66547;BME280;53400;50.364;14.874;2023-02-21T08:13:40;98501.00;;;9.08;88.83
66547;BME280;53400;50.364;14.874;2023-02-21T08:16:06;98513.38;;;9.26;88.64
66547;BME280;53400;50.364;14.874;2023-02-21T08:18:32;98505.03;;;9.23;88.78
66547;BME280;53400;50.364;14.874;2023-02-21T08:20:58;98523.16;;;9.21;88.43
66547;BME280;53400;50.364;14.874;2023-02-21T08:23:24;98521.38;;;9.26;89.71
66547;BME280;53400;50.364;14.874;2023-02-21T08:25:50;98526.41;;;9.23;88.79
66547;BME280;53400;50.364;14.874;2023-02-21T08:28:16;98525.34;;;9.24;89.43
66547;BME280;53400;50.364;14.874;2023-02-21T08:30:43;98525.94;;;9.26;89.36
66547;BME280;53400;50.364;14.874;2023-02-21T08:33:09;98529.88;;;9.23;90.37
66547;BME280;53400;50.364;14.874;2023-02-21T08:35:35;98526.16;;;9.24;90.67
66547;BME280;53400;50.364;14.874;2023-02-21T08:38:01;98536.22;;;9.34;90.27
66547;BME280;53400;50.364;14.874;2023-02-21T08:40:29;98530.22;;;9.27;90.04
66547;BME280;53400;50.364;14.874;2023-02-21T08:42:56;98527.31;;;9.28;90.37
66547;BME280;53400;50.364;14.874;2023-02-21T08:45:24;98534.50;;;9.28;90.51
66547;BME280;53400;50.364;14.874;2023-02-21T08:47:52;98539.94;;;9.33;90.77
66547;BME280;53400;50.364;14.874;2023-02-21T08:50:19;98534.03;;;9.31;91.07
66547;BME280;53400;50.364;14.874;2023-02-21T08:52:46;98542.56;;;9.45;89.70
66547;BME280;53400;50.364;14.874;2023-02-21T08:55:12;98545.34;;;9.50;88.88
66547;BME280;53400;50.364;14.874;2023-02-21T08:57:38;98551.50;;;9.50;89.02
66547;BME280;53400;50.364;14.874;2023-02-21T09:00:04;98557.13;;;9.65;89.06
66547;BME280;53400;50.364;14.874;2023-02-21T09:02:40;98550.06;;;9.59;88.31
66547;BME280;53400;50.364;14.874;2023-02-21T09:05:07;98558.16;;;9.64;87.98
66547;BME280;53400;50.364;14.874;2023-02-21T09:07:34;98548.94;;;9.72;87.16
66547;BME280;53400;50.364;14.874;2023-02-21T09:10:00;98550.06;;;9.76;87.11
66547;BME280;53400;50.364;14.874;2023-02-21T09:12:26;98560.56;;;9.78;86.96
66547;BME280;53400;50.364;14.874;2023-02-21T09:14:52;98554.44;;;9.65;87.06
66547;BME280;53400;50.364;14.874;2023-02-21T09:17:18;98560.72;;;9.71;86.31
66547;BME280;53400;50.364;14.874;2023-02-21T09:19:43;98556.88;;;9.67;87.72
66547;BME280;53400;50.364;14.874;2023-02-21T09:22:11;98559.81;;;9.65;87.50
66547;BME280;53400;50.364;14.874;2023-02-21T09:24:37;98564.09;;;9.67;88.10
66547;BME280;53400;50.364;14.874;2023-02-21T09:27:04;98560.03;;;9.64;87.24
66547;BME280;53400;50.364;14.874;2023-02-21T09:29:31;98573.50;;;9.69;87.22
66547;BME280;53400;50.364;14.874;2023-02-21T09:31:58;98578.47;;;9.77;88.38
66547;BME280;53400;50.364;14.874;2023-02-21T09:34:24;98564.66;;;9.69;87.76
66547;BME280;53400;50.364;14.874;2023-02-21T09:36:50;98564.66;;;9.69;87.79
66547;BME280;53400;50.364;14.874;2023-02-21T09:39:18;98575.63;;;9.55;88.49
66547;BME280;53400;50.364;14.874;2023-02-21T09:41:44;98576.56;;;9.61;88.85
66547;BME280;53400;50.364;14.874;2023-02-21T09:44:14;98585.97;;;9.63;87.97
66547;BME280;53400;50.364;14.874;2023-02-21T09:46:43;98581.56;;;9.57;88.86
66547;BME280;53400;50.364;14.874;2023-02-21T09:49:13;98585.38;;;9.61;87.40
66547;BME280;53400;50.364;14.874;2023-02-21T09:51:42;98587.09;;;9.39;89.74
66547;BME280;53400;50.364;14.874;2023-02-21T09:54:15;98593.50;;;9.38;90.56
66547;BME280;53400;50.364;14.874;2023-02-21T09:56:45;98587.59;;;9.36;90.05
66547;BME280;53400;50.364;14.874;2023-02-21T09:59:12;98587.38;;;9.26;90.71
66547;BME280;53400;50.364;14.874;2023-02-21T10:01:49;98600.50;;;9.27;90.17
66547;BME280;53400;50.364;14.874;2023-02-21T10:04:24;98597.00;;;9.38;90.17
66547;BME280;53400;50.364;14.874;2023-02-21T10:06:59;98596.31;;;9.31;90.30
66547;BME280;53400;50.364;14.874;2023-02-21T10:09:35;98592.13;;;9.35;90.07
66547;BME280;53400;50.364;14.874;2023-02-21T10:12:11;98601.41;;;9.33;90.01
66547;BME280;53400;50.364;14.874;2023-02-21T10:14:54;98606.25;;;9.48;90.10
66547;BME280;53400;50.364;14.874;2023-02-21T10:17:30;98602.38;;;9.55;88.20
66547;BME280;53400;50.364;14.874;2023-02-21T10:20:02;98600.75;;;9.54;88.98
66547;BME280;53400;50.364;14.874;2023-02-21T10:22:33;98596.94;;;9.50;87.53
66547;BME280;53400;50.364;14.874;2023-02-21T10:25:00;98597.72;;;9.62;87.88
66547;BME280;53400;50.364;14.874;2023-02-21T10:27:36;98592.13;;;9.64;88.82
66547;BME280;53400;50.364;14.874;2023-02-21T10:30:05;98582.91;;;9.72;88.39
66547;BME280;53400;50.364;14.874;2023-02-21T10:32:35;98586.22;;;9.79;86.93
66547;BME280;53400;50.364;14.874;2023-02-21T10:35:02;98584.47;;;9.84;87.16
66547;BME280;53400;50.364;14.874;2023-02-21T10:37:34;98586.91;;;9.86;87.02
66547;BME280;53400;50.364;14.874;2023-02-21T10:40:12;98582.59;;;9.85;85.43
66547;BME280;53400;50.364;14.874;2023-02-21T10:42:45;98582.88;;;10.17;86.03
66547;BME280;53400;50.364;14.874;2023-02-21T10:45:17;98579.31;;;10.28;85.13
66547;BME280;53400;50.364;14.874;2023-02-21T10:47:49;98585.31;;;10.19;84.63
66547;BME280;53400;50.364;14.874;2023-02-21T10:50:39;98584.94;;;10.27;83.64
66547;BME280;53400;50.364;14.874;2023-02-21T10:53:06;98576.41;;;10.30;84.09
66547;BME280;53400;50.364;14.874;2023-02-21T10:55:33;98577.13;;;10.42;84.15
66547;BME280;53400;50.364;14.874;2023-02-21T10:58:07;98576.25;;;10.53;83.94
66547;BME280;53400;50.364;14.874;2023-02-21T11:00:34;98576.47;;;10.52;83.49
66547;BME280;53400;50.364;14.874;2023-02-21T11:03:03;98578.44;;;10.40;83.01
66547;BME280;53400;50.364;14.874;2023-02-21T11:05:30;98572.84;;;10.41;82.72
66547;BME280;53400;50.364;14.874;2023-02-21T11:07:59;98574.16;;;10.39;83.77
66547;BME280;53400;50.364;14.874;2023-02-21T11:10:31;98575.75;;;10.40;83.68
66547;BME280;53400;50.364;14.874;2023-02-21T11:13:10;98576.25;;;10.53;83.24
66547;BME280;53400;50.364;14.874;2023-02-21T11:15:37;98574.44;;;10.59;82.67
66547;BME280;53400;50.364;14.874;2023-02-21T11:18:13;98569.34;;;10.57;82.65
66547;BME280;53400;50.364;14.874;2023-02-21T11:20:39;98557.25;;;10.55;83.10
66547;BME280;53400;50.364;14.874;2023-02-21T11:23:17;98565.44;;;10.65;83.61
66547;BME280;53400;50.364;14.874;2023-02-21T11:25:44;98560.06;;;10.65;83.57
66547;BME280;53400;50.364;14.874;2023-02-21T11:28:19;98567.78;;;10.62;83.92
66547;BME280;53400;50.364;14.874;2023-02-21T11:30:49;98562.06;;;10.53;83.51
66547;BME280;53400;50.364;14.874;2023-02-21T11:33:19;98562.84;;;10.37;84.20
66547;BME280;53400;50.364;14.874;2023-02-21T11:35:48;98564.63;;;10.48;84.57
66547;BME280;53400;50.364;14.874;2023-02-21T11:38:32;98555.91;;;10.36;84.18
66547;BME280;53400;50.364;14.874;2023-02-21T11:41:03;98554.81;;;10.20;86.10
66547;BME280;53400;50.364;14.874;2023-02-21T11:43:45;98558.84;;;10.22;85.63
66547;BME280;53400;50.364;14.874;2023-02-21T11:46:16;98550.09;;;10.44;84.49
66547;BME280;53400;50.364;14.874;2023-02-21T11:48:50;98549.31;;;10.43;84.25
66547;BME280;53400;50.364;14.874;2023-02-21T11:51:31;98543.78;;;10.50;84.18
66547;BME280;53400;50.364;14.874;2023-02-21T11:53:58;98549.47;;;10.53;83.91
66547;BME280;53400;50.364;14.874;2023-02-21T11:56:32;98540.50;;;10.65;83.20
66547;BME280;53400;50.364;14.874;2023-02-21T11:59:09;98540.94;;;10.56;83.40
66547;BME280;53400;50.364;14.874;2023-02-21T12:01:42;98529.97;;;10.58;83.36
66547;BME280;53400;50.364;14.874;2023-02-21T12:04:26;98536.31;;;10.52;83.17
66547;BME280;53400;50.364;14.874;2023-02-21T12:07:02;98533.09;;;10.50;82.67
66547;BME280;53400;50.364;14.874;2023-02-21T12:09:38;98531.53;;;10.54;83.88
66547;BME280;53400;50.364;14.874;2023-02-21T12:12:18;98540.06;;;10.51;83.01
66547;BME280;53400;50.364;14.874;2023-02-21T12:15:04;98528.59;;;10.55;83.76
66547;BME280;53400;50.364;14.874;2023-02-21T12:17:46;98536.00;;;10.48;84.25
66547;BME280;53400;50.364;14.874;2023-02-21T12:20:36;98528.88;;;10.37;84.61
66547;BME280;53400;50.364;14.874;2023-02-21T12:23:14;98514.44;;;10.38;83.31
66547;BME280;53400;50.364;14.874;2023-02-21T12:25:55;98518.16;;;10.37;84.60
66547;BME280;53400;50.364;14.874;2023-02-21T12:28:37;98499.41;;;10.37;83.98
66547;BME280;53400;50.364;14.874;2023-02-21T12:31:20;98505.09;;;10.41;84.09
66547;BME280;53400;50.364;14.874;2023-02-21T12:33:54;98501.19;;;10.48;84.20
66547;BME280;53400;50.364;14.874;2023-02-21T12:36:34;98511.97;;;10.53;83.37
66547;BME280;53400;50.364;14.874;2023-02-21T12:39:17;98503.69;;;10.77;83.89
66547;BME280;53400;50.364;14.874;2023-02-21T12:42:10;98506.19;;;10.62;84.17
66547;BME280;53400;50.364;14.874;2023-02-21T12:44:48;98506.13;;;10.56;84.02
66547;BME280;53400;50.364;14.874;2023-02-21T12:47:19;98510.69;;;10.56;84.97
66547;BME280;53400;50.364;14.874;2023-02-21T12:49:52;98512.78;;;10.76;83.96
66547;BME280;53400;50.364;14.874;2023-02-21T12:52:24;98514.09;;;10.73;83.46
66547;BME280;53400;50.364;14.874;2023-02-21T12:54:57;98504.53;;;10.77;84.02
66547;BME280;53400;50.364;14.874;2023-02-21T12:57:31;98511.91;;;10.70;83.08
66547;BME280;53400;50.364;14.874;2023-02-21T13:00:02;98519.63;;;10.67;82.62
66547;BME280;53400;50.364;14.874;2023-02-21T13:02:38;98516.78;;;10.73;82.96
66547;BME280;53400;50.364;14.874;2023-02-21T13:05:12;98513.47;;;10.66;83.07
66547;BME280;53400;50.364;14.874;2023-02-21T13:07:42;98513.78;;;10.70;83.00
66547;BME280;53400;50.364;14.874;2023-02-21T13:10:14;98507.56;;;10.64;82.04
66547;BME280;53400;50.364;14.874;2023-02-21T13:12:44;98514.78;;;10.64;82.35
66547;BME280;53400;50.364;14.874;2023-02-21T13:15:16;98513.66;;;10.60;82.30
66547;BME280;53400;50.364;14.874;2023-02-21T13:17:51;98507.13;;;10.50;81.61
66547;BME280;53400;50.364;14.874;2023-02-21T13:20:21;98502.00;;;10.49;83.04
66547;BME280;53400;50.364;14.874;2023-02-21T13:23:09;98502.06;;;10.54;82.20
66547;BME280;53400;50.364;14.874;2023-02-21T13:25:47;98507.75;;;10.57;83.18
66547;BME280;53400;50.364;14.874;2023-02-21T13:28:17;98503.94;;;10.53;82.52